Time;durP1;ratioP1;P1;durP2;ratioP2;P2;SDS_P1;SDS_P2;PMS_P1;PMS_P2;Temp;Humidity;BMP_temperature;BMP_pressure;BME280_temperature;BME280_humidity;BME280_pressure;Samples;Min_cycle;Max_cycle;Signal;HPM_P1;HPM_P2
2022/07/04 00:02:17;;;;;;;4.60;4.20;;;21.50;99.90;;;;;;5110649;28;20208;-65
2022/07/04 00:04:44;;;;;;;5.18;4.72;;;21.40;99.90;;;;;;5111612;28;20200;-64
2022/07/04 00:07:11;;;;;;;4.43;4.03;;;21.30;99.90;;;;;;5109186;28;20638;-65
2022/07/04 00:09:39;;;;;;;5.53;4.82;;;21.30;99.90;;;;;;5110057;28;20272;-64
2022/07/04 00:12:07;;;;;;;4.88;4.45;;;21.30;99.90;;;;;;5110782;28;20234;-65
2022/07/04 00:14:34;;;;;;;5.60;4.78;;;21.20;99.90;;;;;;5097227;28;20208;-64
2022/07/04 00:17:00;;;;;;;5.55;5.05;;;21.20;99.90;;;;;;5110887;28;20851;-65
2022/07/04 00:19:27;;;;;;;5.10;4.60;;;21.30;99.90;;;;;;5104857;28;20215;-65
2022/07/04 00:21:54;;;;;;;5.22;4.65;;;21.30;99.90;;;;;;5110785;28;20202;-64
2022/07/04 00:24:21;;;;;;;6.78;6.10;;;21.20;99.90;;;;;;5110341;28;20210;-65
2022/07/04 00:26:49;;;;;;;5.47;4.72;;;21.20;99.90;;;;;;5108922;28;20214;-65
2022/07/04 00:29:16;;;;;;;8.32;6.30;;;21.20;99.90;;;;;;5109965;28;20192;-65
2022/07/04 00:31:43;;;;;;;6.65;5.45;;;21.20;99.90;;;;;;5110973;28;20431;-64
2022/07/04 00:34:09;;;;;;;6.05;5.28;;;21.20;99.90;;;;;;5111269;28;20629;-64
2022/07/04 00:36:36;;;;;;;6.80;5.82;;;21.20;99.90;;;;;;5107945;28;20286;-64
2022/07/04 00:39:04;;;;;;;6.38;5.78;;;21.10;99.90;;;;;;5110561;28;20260;-65
2022/07/04 00:41:30;;;;;;;8.15;7.35;;;21.10;99.90;;;;;;5109654;28;20256;-65
2022/07/04 00:44:04;;;;;;;7.03;6.32;;;21.00;99.90;;;;;;5111245;28;20680;-64
2022/07/04 00:46:31;;;;;;;8.93;7.30;;;21.10;99.90;;;;;;5111021;28;20215;-65
2022/07/04 00:48:58;;;;;;;8.57;6.88;;;21.00;99.90;;;;;;5107968;28;20200;-65
2022/07/04 00:51:25;;;;;;;6.13;5.55;;;21.00;99.90;;;;;;5109544;28;20238;-64
2022/07/04 00:53:54;;;;;;;7.68;6.82;;;21.00;99.90;;;;;;5107925;28;20208;-64
2022/07/04 00:56:22;;;;;;;6.35;5.60;;;21.00;99.90;;;;;;5111161;28;20239;-64
2022/07/04 00:58:48;;;;;;;7.43;5.35;;;20.90;99.90;;;;;;5113119;28;20204;-66
2022/07/04 01:01:17;;;;;;;6.93;5.45;;;20.90;99.90;;;;;;5114681;28;20531;-64
2022/07/04 01:03:44;;;;;;;7.47;5.45;;;20.90;99.90;;;;;;5113366;28;20219;-65
2022/07/04 01:06:11;;;;;;;5.93;5.35;;;20.90;99.90;;;;;;5114070;28;20211;-64
2022/07/04 01:08:40;;;;;;;6.60;5.43;;;20.90;99.90;;;;;;5112364;28;20766;-64
2022/07/04 01:11:07;;;;;;;6.35;5.32;;;20.90;99.90;;;;;;5114197;28;20219;-65
2022/07/04 01:13:34;;;;;;;9.48;6.22;;;20.90;99.90;;;;;;5114053;28;20214;-64
2022/07/04 01:16:02;;;;;;;5.20;4.65;;;20.90;99.90;;;;;;5113758;28;20200;-64
2022/07/04 01:18:30;;;;;;;9.38;5.00;;;20.90;99.90;;;;;;5113038;28;20222;-65
2022/07/04 01:20:58;;;;;;;4.97;4.50;;;20.90;99.90;;;;;;5113177;28;20494;-64
2022/07/04 01:23:25;;;;;;;5.57;4.53;;;21.00;99.90;;;;;;5114039;28;20207;-64
2022/07/04 01:25:52;;;;;;;5.97;4.45;;;21.00;99.90;;;;;;5112526;28;20212;-64
2022/07/04 01:28:21;;;;;;;4.95;4.22;;;21.00;99.90;;;;;;5113551;28;20606;-64
2022/07/04 01:30:48;;;;;;;5.20;4.70;;;21.00;99.90;;;;;;5111776;28;20242;-64
2022/07/04 01:33:17;;;;;;;5.90;3.90;;;21.00;99.90;;;;;;5113800;28;20207;-64
2022/07/04 01:35:44;;;;;;;5.78;4.60;;;21.00;99.90;;;;;;5113251;28;20199;-65
2022/07/04 01:38:12;;;;;;;7.25;5.40;;;21.00;99.90;;;;;;5113788;28;20208;-64
2022/07/04 01:40:39;;;;;;;5.35;4.85;;;21.00;99.90;;;;;;5111064;28;20621;-64
2022/07/04 01:43:05;;;;;;;5.05;4.57;;;21.00;99.90;;;;;;5112843;28;20211;-65
2022/07/04 01:45:34;;;;;;;6.13;4.93;;;21.00;99.90;;;;;;5112297;28;20828;-64
2022/07/04 01:48:01;;;;;;;8.00;5.50;;;21.00;99.90;;;;;;5111009;28;20204;-64
2022/07/04 01:50:27;;;;;;;6.20;5.63;;;21.00;99.90;;;;;;5112873;28;20675;-64
2022/07/04 01:52:54;;;;;;;5.20;4.70;;;21.00;99.90;;;;;;5113899;28;20567;-64
2022/07/04 01:55:22;;;;;;;4.60;4.20;;;21.00;99.90;;;;;;5113415;28;20200;-64
2022/07/04 01:57:49;;;;;;;6.43;5.57;;;21.00;99.90;;;;;;5111879;28;20593;-64
2022/07/04 02:03:00;;;;;;;5.22;4.72;;;21.00;99.90;;;;;;5112694;28;20682;-65
2022/07/04 02:05:27;;;;;;;4.97;4.55;;;21.00;99.90;;;;;;5112821;28;20212;-64
2022/07/04 02:07:54;;;;;;;4.85;4.30;;;21.00;99.90;;;;;;5113846;28;20224;-65
2022/07/04 02:10:22;;;;;;;6.88;5.65;;;21.00;99.90;;;;;;5111879;28;20729;-64
2022/07/04 02:13:03;;;;;;;5.35;4.85;;;21.00;99.90;;;;;;5112787;27;20215;-65
2022/07/04 02:15:31;;;;;;;6.70;4.65;;;21.00;99.90;;;;;;5112959;28;20253;-65
2022/07/04 02:17:58;;;;;;;4.60;4.20;;;21.00;99.90;;;;;;5111374;28;20204;-65
2022/07/04 02:20:25;;;;;;;5.20;4.65;;;21.00;99.90;;;;;;5112317;28;20203;-64
2022/07/04 02:22:52;;;;;;;4.88;4.43;;;21.00;99.90;;;;;;5113390;28;20212;-65
2022/07/04 02:25:19;;;;;;;5.70;5.03;;;21.00;99.90;;;;;;5113441;28;20211;-64
2022/07/04 02:27:47;;;;;;;5.05;4.25;;;21.00;99.90;;;;;;5112915;28;20208;-64
2022/07/04 02:30:15;;;;;;;9.85;6.43;;;21.00;99.90;;;;;;5107599;28;20207;-65
2022/07/04 02:32:42;;;;;;;6.03;5.53;;;21.00;99.90;;;;;;5110925;28;20250;-65
2022/07/04 02:35:10;;;;;;;8.98;5.55;;;20.90;99.90;;;;;;5111149;28;20214;-64
2022/07/04 02:37:37;;;;;;;6.10;5.50;;;21.00;99.90;;;;;;5111881;28;20210;-65
2022/07/04 02:40:05;;;;;;;5.63;4.88;;;20.90;99.90;;;;;;5112825;28;20204;-65
2022/07/04 02:42:32;;;;;;;5.68;4.65;;;20.90;99.90;;;;;;5112332;28;20196;-64
2022/07/04 02:45:01;;;;;;;6.40;5.85;;;21.00;99.90;;;;;;5112833;28;20210;-65
2022/07/04 02:47:28;;;;;;;6.20;5.57;;;20.90;99.90;;;;;;5109368;28;20203;-65
2022/07/04 02:49:55;;;;;;;7.22;5.47;;;20.90;99.90;;;;;;5111652;28;20613;-65
2022/07/04 02:52:22;;;;;;;7.57;6.70;;;21.00;99.90;;;;;;5111046;28;20220;-64
2022/07/04 02:54:49;;;;;;;7.40;6.32;;;21.00;99.90;;;;;;5112516;28;20208;-64
2022/07/04 02:57:16;;;;;;;7.50;5.50;;;21.00;99.90;;;;;;5111998;28;20563;-67
2022/07/04 02:59:43;;;;;;;6.50;5.82;;;21.00;99.90;;;;;;5111226;28;20559;-67
2022/07/04 03:02:11;;;;;;;10.35;8.27;;;20.90;99.90;;;;;;5110771;28;20231;-67
2022/07/04 03:04:39;;;;;;;6.82;6.10;;;21.00;99.90;;;;;;5110355;28;20208;-67
2022/07/04 03:07:07;;;;;;;7.28;6.57;;;21.00;99.90;;;;;;5111026;28;20208;-67
2022/07/04 03:09:33;;;;;;;7.25;6.18;;;21.00;99.90;;;;;;5107933;28;20280;-68
2022/07/04 03:12:00;;;;;;;6.82;5.78;;;21.00;99.90;;;;;;5109621;28;20259;-67
2022/07/04 03:14:27;;;;;;;7.93;7.13;;;21.10;99.90;;;;;;5110716;28;20192;-67
2022/07/04 03:16:54;;;;;;;6.65;5.95;;;21.10;99.90;;;;;;5109894;28;20200;-67
2022/07/04 03:19:22;;;;;;;6.18;5.57;;;21.20;99.90;;;;;;5111186;28;20679;-67
2022/07/04 03:21:49;;;;;;;7.97;6.10;;;21.20;99.90;;;;;;5111386;28;20206;-68
2022/07/04 03:24:15;;;;;;;7.13;5.70;;;21.20;99.90;;;;;;5110528;28;20208;-68
2022/07/04 03:26:42;;;;;;;6.55;5.85;;;21.20;99.90;;;;;;5110174;28;20674;-67
2022/07/04 03:29:09;;;;;;;8.35;6.10;;;21.30;99.90;;;;;;5110429;28;20200;-67
2022/07/04 03:31:36;;;;;;;7.75;5.63;;;21.30;99.90;;;;;;5109491;28;20219;-67
2022/07/04 03:34:03;;;;;;;6.25;5.65;;;21.40;99.90;;;;;;5111020;28;20605;-67
2022/07/04 03:36:31;;;;;;;7.30;6.50;;;21.50;99.90;;;;;;5111153;28;20663;-67
2022/07/04 03:38:58;;;;;;;8.45;6.15;;;21.50;99.90;;;;;;5111382;28;20658;-68
2022/07/04 03:41:25;;;;;;;7.05;5.90;;;21.50;99.90;;;;;;5111286;28;20199;-67
2022/07/04 03:43:51;;;;;;;6.80;6.00;;;21.50;99.90;;;;;;5108868;28;20222;-68
2022/07/04 03:46:18;;;;;;;6.03;5.50;;;21.50;99.90;;;;;;5109033;28;20611;-67
2022/07/04 03:48:45;;;;;;;7.07;6.32;;;21.50;99.90;;;;;;5111262;28;20211;-67
2022/07/04 03:51:12;;;;;;;7.57;5.78;;;21.50;99.90;;;;;;5111008;28;20659;-68
2022/07/04 03:53:40;;;;;;;7.70;6.90;;;21.50;99.90;;;;;;5110622;28;20559;-67
2022/07/04 03:56:08;;;;;;;7.70;6.93;;;21.60;99.90;;;;;;5111034;28;20685;-68
2022/07/04 03:58:34;;;;;;;8.43;7.25;;;21.60;99.90;;;;;;5110322;28;20391;-67
2022/07/04 04:01:01;;;;;;;9.20;7.75;;;21.70;99.90;;;;;;5108957;28;20567;-68
2022/07/04 04:06:12;;;;;;;6.88;6.28;;;21.70;99.90;;;;;;5097731;28;20310;-67
2022/07/04 04:08:41;;;;;;;7.30;6.63;;;21.80;99.90;;;;;;5110771;28;20223;-68
2022/07/04 04:11:07;;;;;;;7.13;6.43;;;21.80;99.90;;;;;;5110631;28;20636;-67
2022/07/04 04:13:34;;;;;;;8.02;6.57;;;21.90;99.90;;;;;;5109909;28;20216;-67
2022/07/04 04:16:01;;;;;;;9.73;5.93;;;21.90;99.90;;;;;;5105603;28;20711;-68
2022/07/04 04:18:28;;;;;;;7.13;6.53;;;22.00;99.90;;;;;;5109694;28;20432;-68
2022/07/04 04:20:54;;;;;;;8.25;7.32;;;22.00;99.90;;;;;;5108989;28;20230;-67
2022/07/04 04:23:21;;;;;;;9.68;8.68;;;22.10;99.90;;;;;;5108768;28;20195;-68
2022/07/04 04:25:49;;;;;;;12.35;10.18;;;22.20;99.90;;;;;;5109645;28;20212;-67
2022/07/04 04:28:16;;;;;;;14.05;11.38;;;22.20;99.90;;;;;;5110194;28;20207;-68
2022/07/04 04:30:43;;;;;;;10.60;9.50;;;22.30;99.90;;;;;;5110751;28;20208;-68
2022/07/04 04:33:10;;;;;;;9.35;8.45;;;22.30;99.90;;;;;;5112770;28;20656;-68
2022/07/04 04:35:37;;;;;;;10.75;8.80;;;22.40;99.90;;;;;;5113438;28;20196;-67
2022/07/04 04:38:04;;;;;;;9.88;8.95;;;22.40;99.90;;;;;;5114047;28;20222;-67
2022/07/04 04:40:30;;;;;;;9.85;8.85;;;22.40;99.90;;;;;;5114240;28;20215;-67
2022/07/04 04:42:59;;;;;;;10.98;9.80;;;22.40;99.90;;;;;;5114673;28;20208;-68
2022/07/04 04:45:25;;;;;;;8.93;8.05;;;22.40;99.90;;;;;;5112822;28;20232;-67
2022/07/04 04:47:53;;;;;;;9.57;7.90;;;22.50;99.90;;;;;;5115230;28;20211;-68
2022/07/04 04:50:20;;;;;;;8.23;6.97;;;22.40;99.90;;;;;;5112037;28;20231;-67
2022/07/04 04:52:47;;;;;;;10.88;7.35;;;22.50;99.90;;;;;;5113216;28;20224;-67
2022/07/04 04:55:13;;;;;;;6.75;6.05;;;22.50;99.90;;;;;;5111079;28;20204;-67
2022/07/04 04:57:40;;;;;;;7.32;5.97;;;22.60;99.90;;;;;;5113810;28;20200;-67
2022/07/04 05:00:10;;;;;;;8.00;5.95;;;22.70;99.90;;;;;;5112053;28;20212;-66
2022/07/04 05:02:37;;;;;;;10.07;8.45;;;22.70;99.90;;;;;;5113619;28;20192;-68
2022/07/04 05:05:04;;;;;;;8.15;6.15;;;22.80;99.90;;;;;;5112942;28;20211;-67
2022/07/04 05:07:31;;;;;;;5.65;5.15;;;22.80;99.90;;;;;;5113064;28;20220;-68
2022/07/04 05:09:59;;;;;;;6.45;5.00;;;22.90;99.90;;;;;;5113700;28;20613;-67
2022/07/04 05:12:26;;;;;;;6.45;5.40;;;22.90;99.90;;;;;;5113131;28;20273;-67
2022/07/04 05:14:52;;;;;;;8.88;6.22;;;23.00;99.90;;;;;;5113098;28;20842;-67
2022/07/04 05:17:21;;;;;;;8.60;5.10;;;23.00;99.90;;;;;;5112740;28;20227;-68
2022/07/04 05:19:48;;;;;;;8.02;5.55;;;23.10;99.90;;;;;;5114045;28;20208;-67
2022/07/04 05:22:15;;;;;;;6.40;5.32;;;23.10;99.90;;;;;;5112082;28;20196;-67
2022/07/04 05:24:42;;;;;;;8.68;6.45;;;23.10;99.90;;;;;;5110586;28;20252;-67
2022/07/04 05:27:09;;;;;;;5.93;5.28;;;23.20;99.90;;;;;;5111905;28;20216;-68
2022/07/04 05:29:36;;;;;;;7.22;5.28;;;23.20;99.90;;;;;;5113162;28;20242;-68
2022/07/04 05:32:03;;;;;;;5.80;5.28;;;23.20;99.90;;;;;;5113522;28;20255;-68
2022/07/04 05:34:31;;;;;;;6.80;5.75;;;23.30;99.90;;;;;;5112784;28;20208;-67
2022/07/04 05:36:58;;;;;;;7.43;6.72;;;23.30;99.90;;;;;;5112724;28;20210;-68
2022/07/04 05:39:24;;;;;;;7.15;6.43;;;23.40;99.90;;;;;;5105495;28;20200;-68
2022/07/04 05:41:51;;;;;;;6.10;5.50;;;23.50;99.90;;;;;;5111882;28;20726;-67
2022/07/04 05:44:18;;;;;;;6.43;5.32;;;23.40;99.90;;;;;;5112638;28;20212;-68
2022/07/04 05:46:45;;;;;;;7.28;5.82;;;23.50;99.90;;;;;;5111675;28;20235;-68
2022/07/04 05:49:11;;;;;;;9.02;6.00;;;23.50;99.90;;;;;;5112971;28;20208;-69
2022/07/04 05:51:39;;;;;;;8.15;6.68;;;23.50;99.90;;;;;;5113242;28;20212;-68
2022/07/04 05:54:06;;;;;;;8.80;5.65;;;23.50;99.90;;;;;;5110337;28;20200;-67
2022/07/04 05:56:33;;;;;;;7.53;6.72;;;23.60;99.90;;;;;;5111602;28;20208;-67
2022/07/04 05:59:00;;;;;;;6.20;5.57;;;23.60;99.90;;;;;;5113010;28;20200;-68
2022/07/04 06:01:26;;;;;;;8.88;6.80;;;23.50;99.90;;;;;;5113262;28;20214;-68
2022/07/04 06:03:53;;;;;;;5.72;5.22;;;23.60;99.90;;;;;;5112887;28;20212;-67
2022/07/04 06:06:20;;;;;;;5.88;4.97;;;23.60;99.90;;;;;;5112958;28;20200;-68
2022/07/04 06:08:48;;;;;;;5.93;4.80;;;23.60;99.90;;;;;;5112843;28;20220;-67
2022/07/04 06:11:17;;;;;;;7.72;5.30;;;23.70;99.90;;;;;;5112905;28;20207;-69
2022/07/04 06:13:44;;;;;;;7.15;4.80;;;23.70;99.90;;;;;;5112037;28;20702;-68
2022/07/04 06:16:11;;;;;;;6.57;4.57;;;23.80;99.90;;;;;;5108802;28;20214;-67
2022/07/04 06:18:38;;;;;;;7.38;5.10;;;23.90;99.90;;;;;;5112001;28;20207;-68
2022/07/04 06:21:04;;;;;;;9.13;5.32;;;23.90;99.90;;;;;;5111760;28;20207;-67
2022/07/04 06:23:32;;;;;;;5.32;4.28;;;24.00;99.90;;;;;;5111970;28;20571;-68
2022/07/04 06:26:00;;;;;;;6.47;4.78;;;24.10;99.90;;;;;;5111776;28;20291;-68
2022/07/04 06:28:27;;;;;;;5.20;4.70;;;24.20;99.90;;;;;;5112366;28;20211;-68
2022/07/04 06:30:54;;;;;;;6.15;4.20;;;24.20;99.90;;;;;;5105388;28;20208;-68
2022/07/04 06:33:20;;;;;;;5.00;4.05;;;24.30;99.90;;;;;;5111594;28;20235;-67
2022/07/04 06:35:49;;;;;;;5.75;3.97;;;24.40;99.90;;;;;;5105257;28;20204;-68
2022/07/04 06:38:19;;;;;;;5.85;4.60;;;24.50;99.90;;;;;;5110183;28;20589;-68
2022/07/04 06:40:46;;;;;;;4.25;3.80;;;24.50;99.90;;;;;;5110351;28;20694;-67
2022/07/04 06:43:15;;;;;;;6.68;4.00;;;24.60;99.90;;;;;;5108660;28;20253;-68
2022/07/04 06:45:42;;;;;;;5.30;3.75;;;24.60;99.90;;;;;;5109443;28;20211;-70
2022/07/04 06:48:09;;;;;;;6.13;4.80;;;24.70;99.90;;;;;;5108622;28;20208;-68
2022/07/04 06:50:36;;;;;;;6.00;4.50;;;24.70;99.90;;;;;;5109388;28;20259;-68
2022/07/04 06:53:04;;;;;;;3.60;3.17;;;24.90;99.90;;;;;;5107073;28;20219;-70
2022/07/04 06:55:32;;;;;;;5.57;3.40;;;24.90;99.90;;;;;;5110745;28;20214;-69
2022/07/04 06:57:59;;;;;;;4.88;3.45;;;25.00;99.90;;;;;;5110475;28;20629;-70
2022/07/04 07:00:30;;;;;;;6.10;4.07;;;25.00;99.90;;;;;;5108619;28;20212;-69
2022/07/04 07:02:57;;;;;;;6.22;5.47;;;25.00;99.90;;;;;;5095262;28;20201;-69
2022/07/04 07:05:24;;;;;;;4.38;3.97;;;25.00;99.90;;;;;;5102993;28;20204;-68
2022/07/04 07:07:51;;;;;;;5.57;4.22;;;24.90;99.90;;;;;;5110561;28;20266;-68
2022/07/04 07:10:18;;;;;;;5.22;3.53;;;24.80;99.90;;;;;;5111394;28;20235;-68
2022/07/04 07:12:45;;;;;;;4.07;3.67;;;24.80;99.90;;;;;;5107893;28;20726;-68
2022/07/04 07:15:12;;;;;;;5.70;3.33;;;25.00;99.90;;;;;;5107477;28;20679;-69
2022/07/04 07:17:40;;;;;;;4.18;3.78;;;25.00;99.90;;;;;;5111301;28;20204;-68
2022/07/04 07:20:08;;;;;;;6.85;4.10;;;25.10;99.90;;;;;;5108648;28;20208;-68
2022/07/04 07:22:34;;;;;;;3.92;3.08;;;25.20;99.90;;;;;;5110200;28;20838;-68
2022/07/04 07:25:01;;;;;;;3.35;3.05;;;25.20;99.90;;;;;;5110070;28;20215;-68
2022/07/04 07:27:29;;;;;;;4.85;3.70;;;25.20;99.90;;;;;;5111668;28;20208;-68
2022/07/04 07:29:55;;;;;;;3.83;2.90;;;25.40;99.90;;;;;;5109971;28;20227;-68
2022/07/04 07:32:22;;;;;;;4.82;3.08;;;25.50;99.90;;;;;;5111273;28;20220;-69
2022/07/04 07:34:50;;;;;;;3.45;3.10;;;25.60;99.90;;;;;;5111809;28;20705;-68
2022/07/04 07:37:20;;;;;;;3.05;2.65;;;25.80;99.90;;;;;;5112234;28;20218;-69
2022/07/04 07:39:46;;;;;;;3.83;2.88;;;25.90;99.90;;;;;;5111123;28;20775;-69
2022/07/04 07:42:13;;;;;;;3.47;2.58;;;26.00;99.90;;;;;;5111925;28;20211;-68
2022/07/04 07:44:40;;;;;;;3.40;2.85;;;26.10;99.90;;;;;;5110231;28;20835;-68
2022/07/04 07:47:07;;;;;;;6.30;2.80;;;26.20;99.90;;;;;;5107012;28;20682;-68
2022/07/04 07:49:34;;;;;;;3.03;2.72;;;26.20;99.90;;;;;;5110619;28;20204;-68
2022/07/04 07:52:02;;;;;;;4.57;3.08;;;26.30;99.90;;;;;;5109663;28;20212;-68
2022/07/04 07:54:29;;;;;;;5.38;3.45;;;26.40;99.90;;;;;;5107780;28;20223;-68
2022/07/04 07:56:56;;;;;;;2.92;2.70;;;26.50;99.90;;;;;;5106630;28;20219;-69
2022/07/04 07:59:23;;;;;;;6.90;2.67;;;26.50;99.90;;;;;;5108744;28;20200;-68
2022/07/04 08:01:50;;;;;;;3.13;2.28;;;26.50;99.90;;;;;;5109423;28;20583;-68
2022/07/04 08:04:34;;;;;;;2.72;2.47;;;26.60;99.90;;;;;;5108206;28;20207;-68
2022/07/04 08:07:03;;;;;;;3.88;2.63;;;26.50;99.60;;;;;;5110220;28;20196;-68
2022/07/04 08:09:29;;;;;;;3.17;2.80;;;26.60;99.50;;;;;;5106917;28;20239;-70
2022/07/04 08:11:56;;;;;;;4.00;2.78;;;26.70;99.30;;;;;;5108983;28;20857;-67
2022/07/04 08:14:23;;;;;;;3.20;2.60;;;26.60;99.10;;;;;;5107683;28;20223;-69
2022/07/04 08:16:50;;;;;;;2.92;2.42;;;26.70;99.10;;;;;;5108879;28;20207;-68
2022/07/04 08:19:17;;;;;;;3.53;2.97;;;26.80;99.10;;;;;;5110074;28;20254;-67
2022/07/04 08:21:43;;;;;;;2.85;2.60;;;27.00;98.80;;;;;;5109259;28;20286;-67
2022/07/04 08:24:11;;;;;;;4.20;2.47;;;27.10;98.60;;;;;;5107926;28;20206;-69
2022/07/04 08:26:38;;;;;;;5.35;2.25;;;27.20;98.10;;;;;;5105878;28;20212;-69
2022/07/04 08:29:05;;;;;;;3.75;2.08;;;27.30;97.50;;;;;;5108445;28;20208;-68
2022/07/04 08:31:32;;;;;;;3.22;2.03;;;27.40;97.20;;;;;;5109910;28;20204;-68
2022/07/04 08:33:58;;;;;;;4.10;3.00;;;27.50;96.60;;;;;;5104533;28;20589;-68
2022/07/04 08:36:25;;;;;;;2.10;1.90;;;27.50;96.10;;;;;;5108179;28;20578;-67
2022/07/04 08:38:52;;;;;;;2.80;1.42;;;27.60;95.70;;;;;;5108266;28;20243;-67
2022/07/04 08:41:20;;;;;;;3.80;2.33;;;27.80;94.90;;;;;;5109335;28;20208;-69
2022/07/04 08:43:49;;;;;;;3.70;2.00;;;27.90;93.60;;;;;;5105199;28;20204;-68
2022/07/04 08:46:17;;;;;;;2.60;1.52;;;28.00;93.00;;;;;;5108829;28;20199;-68
2022/07/04 08:48:52;;;;;;;2.55;1.60;;;28.10;92.60;;;;;;5105600;28;20200;-68
2022/07/04 08:51:30;;;;;;;1.65;1.48;;;28.30;92.00;;;;;;5103698;28;20203;-67
2022/07/04 08:53:58;;;;;;;1.60;1.50;;;28.50;91.10;;;;;;5098603;28;20579;-68
2022/07/04 08:59:23;;;;;;;4.05;1.50;;;28.90;90.30;;;;;;5045170;28;20194;-68
2022/07/04 09:01:50;;;;;;;5.07;1.70;;;29.00;88.10;;;;;;5090774;28;20210;-67
2022/07/04 09:04:17;;;;;;;1.85;1.58;;;29.00;86.00;;;;;;5108207;28;20210;-69
2022/07/04 09:06:44;;;;;;;1.50;1.40;;;29.00;84.60;;;;;;5110205;28;20212;-68
2022/07/04 09:09:12;;;;;;;4.47;1.50;;;28.90;84.10;;;;;;5109526;28;20599;-68
2022/07/04 09:11:41;;;;;;;4.28;2.10;;;29.00;84.00;;;;;;5108902;28;20204;-68
2022/07/04 09:14:08;;;;;;;2.17;1.67;;;29.10;83.60;;;;;;5105621;28;20220;-69
2022/07/04 09:16:34;;;;;;;2.63;1.40;;;29.30;83.00;;;;;;5105153;28;20558;-66
2022/07/04 09:19:01;;;;;;;1.73;1.40;;;29.60;81.80;;;;;;5113197;28;20208;-68
2022/07/04 09:21:44;;;;;;;3.95;1.45;;;29.70;79.80;;;;;;5110647;28;20223;-68
2022/07/04 09:24:11;;;;;;;3.38;1.77;;;29.80;78.20;;;;;;5111275;28;20238;-67
2022/07/04 09:26:44;;;;;;;2.67;1.85;;;29.90;78.20;;;;;;5102955;27;20211;-66
2022/07/04 09:29:11;;;;;;;2.40;1.85;;;30.00;77.80;;;;;;5106625;27;20199;-67
2022/07/04 09:31:39;;;;;;;1.98;1.60;;;30.00;77.30;;;;;;5109008;28;20462;-68
2022/07/04 09:34:07;;;;;;;3.38;1.60;;;30.10;77.10;;;;;;5110043;28;20243;-67
2022/07/04 09:36:35;;;;;;;2.97;1.58;;;30.10;76.40;;;;;;5111735;28;20196;-67
2022/07/04 09:39:12;;;;;;;2.17;1.70;;;30.00;76.10;;;;;;5111485;28;20208;-69
2022/07/04 09:41:55;;;;;;;4.25;1.85;;;30.10;74.60;;;;;;5111658;28;20203;-68
2022/07/04 09:44:22;;;;;;;2.53;1.58;;;30.00;73.10;;;;;;5120589;27;20204;-69
2022/07/04 09:46:49;;;;;;;1.55;1.30;;;29.90;72.90;;;;;;5110371;28;20211;-71
2022/07/04 09:49:16;;;;;;;3.65;1.10;;;29.80;72.10;;;;;;5110969;28;20204;-68
2022/07/04 09:51:44;;;;;;;5.82;1.83;;;29.90;71.30;;;;;;5111743;28;20212;-67
2022/07/04 09:54:26;;;;;;;2.38;1.38;;;30.10;70.00;;;;;;5107400;28;20223;-67
2022/07/04 09:56:56;;;;;;;2.13;1.23;;;30.20;69.60;;;;;;5107274;28;20207;-67
2022/07/04 09:59:23;;;;;;;3.60;1.52;;;30.40;68.40;;;;;;5111748;28;20200;-69
2022/07/04 10:01:50;;;;;;;1.98;1.67;;;30.40;68.30;;;;;;5112962;28;20205;-68
2022/07/04 10:04:20;;;;;;;1.30;1.20;;;30.40;68.50;;;;;;5103975;28;20207;-67
2022/07/04 10:06:47;;;;;;;1.85;1.58;;;30.50;69.00;;;;;;5111159;28;20208;-68
2022/07/04 10:09:15;;;;;;;1.48;1.38;;;30.60;69.20;;;;;;5111531;28;20231;-68
2022/07/04 10:11:44;;;;;;;1.83;1.55;;;30.70;69.80;;;;;;5113387;28;20212;-69
2022/07/04 10:14:13;;;;;;;2.28;1.60;;;30.70;70.20;;;;;;5112584;28;20306;-68
2022/07/04 10:16:41;;;;;;;2.10;1.90;;;30.70;70.90;;;;;;5111734;28;20226;-67
2022/07/04 10:19:09;;;;;;;1.60;1.50;;;30.70;70.50;;;;;;5109110;28;20216;-68
2022/07/04 10:21:36;;;;;;;1.33;1.23;;;30.70;70.30;;;;;;5105296;28;20664;-68
2022/07/04 10:24:04;;;;;;;2.05;1.85;;;30.80;69.70;;;;;;5109712;28;20569;-67
2022/07/04 10:26:31;;;;;;;1.73;1.63;;;30.90;68.60;;;;;;5111964;28;20253;-68
2022/07/04 10:28:59;;;;;;;2.10;1.40;;;31.00;67.50;;;;;;5111737;28;20574;-67
2022/07/04 10:31:29;;;;;;;2.58;1.70;;;31.10;67.60;;;;;;5113231;28;20204;-68
2022/07/04 10:33:57;;;;;;;1.90;1.42;;;31.20;67.30;;;;;;5112449;28;20230;-67
2022/07/04 10:36:28;;;;;;;2.03;1.58;;;31.30;67.60;;;;;;5112703;28;20208;-67
2022/07/04 10:38:58;;;;;;;2.40;1.77;;;31.30;67.60;;;;;;5109841;28;20768;-67
2022/07/04 10:41:26;;;;;;;1.75;1.45;;;31.20;68.10;;;;;;5111932;28;20220;-67
2022/07/04 10:44:06;;;;;;;2.90;1.80;;;31.20;68.30;;;;;;5105482;28;20200;-68
2022/07/04 10:46:36;;;;;;;2.40;1.42;;;31.00;68.40;;;;;;5109882;28;20249;-67
2022/07/04 10:49:06;;;;;;;2.30;1.70;;;31.20;68.20;;;;;;5106507;28;20214;-67
2022/07/04 10:51:38;;;;;;;3.53;1.77;;;31.20;67.90;;;;;;5108415;27;20204;-67
2022/07/04 10:54:07;;;;;;;3.58;2.30;;;31.30;67.80;;;;;;5109977;27;20212;-66
2022/07/04 10:56:39;;;;;;;2.97;1.63;;;31.20;67.90;;;;;;5111032;28;20492;-67
2022/07/04 10:59:11;;;;;;;1.70;1.60;;;31.30;67.90;;;;;;5112035;28;20230;-67
2022/07/04 11:01:45;;;;;;;3.85;1.75;;;31.40;67.80;;;;;;5109721;28;20208;-67
2022/07/04 11:04:11;;;;;;;2.65;1.60;;;31.50;67.00;;;;;;5110876;28;20188;-67
2022/07/04 11:06:54;;;;;;;1.52;1.38;;;31.60;66.50;;;;;;5111363;28;20218;-67
2022/07/04 11:09:24;;;;;;;2.75;1.67;;;31.70;66.00;;;;;;5109838;28;20285;-68
2022/07/04 11:11:56;;;;;;;2.45;1.80;;;31.70;65.20;;;;;;5104904;28;20207;-68
2022/07/04 11:14:37;;;;;;;3.00;1.70;;;31.80;65.10;;;;;;5110476;28;20204;-67
2022/07/04 11:17:06;;;;;;;3.65;1.70;;;31.80;64.40;;;;;;5103220;28;20214;-67
2022/07/04 11:19:33;;;;;;;1.50;1.40;;;31.70;64.30;;;;;;5110043;28;20208;-68
2022/07/04 11:22:00;;;;;;;3.05;1.48;;;31.60;64.10;;;;;;5111951;28;20571;-68
2022/07/04 11:24:28;;;;;;;1.75;1.65;;;31.50;64.40;;;;;;5111034;28;20204;-67
2022/07/04 11:26:55;;;;;;;3.35;1.73;;;31.60;64.60;;;;;;5112265;28;20208;-67
2022/07/04 11:29:22;;;;;;;1.70;1.60;;;31.50;64.60;;;;;;5107658;28;20659;-68
2022/07/04 11:31:51;;;;;;;4.80;2.28;;;31.50;65.00;;;;;;5110955;28;20287;-67
2022/07/04 11:34:23;;;;;;;3.83;1.60;;;31.40;65.10;;;;;;5111322;28;20223;-67
2022/07/04 11:36:51;;;;;;;4.20;2.40;;;31.40;65.30;;;;;;5110339;28;20200;-67
2022/07/04 11:39:20;;;;;;;2.05;1.85;;;31.40;65.50;;;;;;5109114;28;20204;-68
2022/07/04 11:47:21;;;;;;;2.38;1.90;;;31.30;65.10;;;;;;5110176;28;20211;-67
2022/07/04 11:49:51;;;;;;;3.17;1.67;;;31.10;64.70;;;;;;5110492;28;20199;-67
2022/07/04 11:52:21;;;;;;;2.03;1.48;;;31.00;64.80;;;;;;5112100;28;20291;-68
2022/07/04 11:54:49;;;;;;;1.60;1.50;;;30.90;65.20;;;;;;5108164;28;20654;-68
2022/07/04 11:57:22;;;;;;;3.10;1.52;;;30.90;66.60;;;;;;5106251;28;20200;-68
2022/07/04 11:59:57;;;;;;;1.95;1.80;;;30.90;66.00;;;;;;5109775;28;20220;-68
2022/07/04 12:02:25;;;;;;;2.63;1.40;;;30.90;65.50;;;;;;5106239;28;20208;-68
2022/07/04 12:04:53;;;;;;;1.85;1.60;;;30.80;65.20;;;;;;5107649;28;20656;-69
2022/07/04 12:07:25;;;;;;;1.73;1.40;;;30.90;65.40;;;;;;5110378;28;20204;-68
2022/07/04 12:09:53;;;;;;;3.85;1.70;;;30.90;65.40;;;;;;5110913;28;20232;-68
2022/07/04 12:12:21;;;;;;;3.22;1.60;;;30.90;65.10;;;;;;5109664;28;20211;-68
2022/07/04 12:14:59;;;;;;;2.28;1.50;;;31.10;65.10;;;;;;5110995;28;20259;-67
2022/07/04 12:17:31;;;;;;;1.70;1.42;;;31.30;64.70;;;;;;5110793;28;20215;-67
2022/07/04 12:20:01;;;;;;;2.80;1.67;;;31.40;63.60;;;;;;5109564;28;20214;-68
2022/07/04 12:22:38;;;;;;;2.05;1.25;;;31.50;63.10;;;;;;5109379;28;20214;-67
2022/07/04 12:25:10;;;;;;;2.28;1.60;;;31.60;62.60;;;;;;5109934;28;20208;-68
2022/07/04 12:27:37;;;;;;;2.22;1.52;;;31.60;62.00;;;;;;5109718;28;20287;-68
2022/07/04 12:30:05;;;;;;;1.85;1.55;;;31.50;61.40;;;;;;5110879;28;20204;-67
2022/07/04 12:32:49;;;;;;;2.13;1.58;;;31.50;61.50;;;;;;5110677;28;20655;-67
2022/07/04 12:35:52;;;;;;;3.38;1.70;;;31.30;61.70;;;;;;5110421;28;20675;-67
2022/07/04 12:38:23;;;;;;;2.58;1.58;;;31.30;62.00;;;;;;5105956;28;20207;-69
2022/07/04 12:40:58;;;;;;;14.02;6.40;;;31.20;62.30;;;;;;5109037;28;20204;-67
2022/07/04 12:43:27;;;;;;;3.47;2.05;;;31.00;62.60;;;;;;5109088;28;20203;-67
2022/07/04 12:45:55;;;;;;;2.70;2.08;;;30.90;63.20;;;;;;5110898;28;20195;-68
2022/07/04 12:48:29;;;;;;;2.38;1.80;;;30.80;63.50;;;;;;5110558;28;20565;-67
2022/07/04 12:51:11;;;;;;;7.45;1.75;;;30.80;63.90;;;;;;5110181;28;20211;-68
2022/07/04 12:53:41;;;;;;;3.88;1.67;;;30.70;64.10;;;;;;5112248;28;20200;-68
2022/07/04 12:56:08;;;;;;;3.78;1.50;;;30.60;64.00;;;;;;5113025;28;20200;-69
2022/07/04 12:58:36;;;;;;;3.13;2.88;;;30.70;64.10;;;;;;5112017;28;20207;-68
2022/07/04 13:01:02;;;;;;;2.97;2.22;;;30.70;64.10;;;;;;5113565;28;20573;-69
2022/07/04 13:03:30;;;;;;;5.25;3.10;;;30.60;64.10;;;;;;5114488;28;20208;-68
2022/07/04 13:05:57;;;;;;;2.33;2.10;;;30.50;64.00;;;;;;5114421;28;20204;-69